الصفحة الرئيسية
METAR-TAF:

METAR-TAF

مطار :

Laoag, الفلبين

دائرة عرض: 18-11N, خط طول: 120-32E, ارتفاع: 4 متر

مراقبة الطقس الحالي

تاريخ ووقت الإصدار 1ساعة و 44 دقيقة قبل الساعة 15:00UTC
ريح 2 عقدة من الشمال الشرقي
درجة الحرارة 28°درجة مئوية
الرطوبة 89%
ضغط 1010 hPa
الرؤية 10 كم أو أكثر
غيوم قليلة على ارتفاع 1800 قدم

METAR: RPLI 241500Z 04002KT 9999 FEW018 28/26 Q1010 NOSIG RMK A2983

زمن: 00:44 (16:44 UTC)

توقعات

تاريخ ووقت الإصدار 5ساعات و 44 دقيقة قبل الساعة 11:00UTC
التوقعات صالحة من24 الساعة 12 UTC إلى 25 الساعة 12 UTC
ريح 6 عقدة من الغرب/الشمال الغربي
الرؤية 10 كم أو أكثر
غيوم قليلة على ارتفاع 1800 قدم
مؤقت
من 24 الساعة 12 UTC إلى 24 الساعة 18 UTC
ريح 4 عقدة من الشرق/الجنوب الشرقي
غيوم قليلة على ارتفاع 1700 قدم, مزنة ركامية.
غيوم قليلة على ارتفاع 1800 قدم
غيوم مفككة على ارتفاع 10000 قدم

TAF: RPLI 241100Z 2412/2512 29006KT 9999 FEW018 TEMPO 2412/2418 11004KT FEW017CB FEW018 BKN100

أرصاد الطقس والتوقعات من أكثر من 4000 مطار (تقارير الطقس للمطار METAR والتنبؤ بالطقس بالمطارTAF).

المحطات المتاحة هي النقط الصفراء والحمراء على الخريطة.

حرك المؤشر فوق النقطة لمعرفة اسم المحطة.

ثم انقر لمعرفة أرصاد وتوقعات الطقس.

لتغيير الخارطة: اضغط على الأزرار الخضراء مع رمز الصليب الأسود للتكبير. على الزر الأخضر مع شرطة للتصغير، أو على الأسهم الخضراء للخرائط المجاورة.


METAR-TAF: